createdAt,value
2019-02-20T00:05:20.599Z,15.94
2019-02-20T00:11:15.627Z,16.28
2019-02-20T00:17:10.610Z,14.87
2019-02-20T00:23:05.608Z,19.35
2019-02-20T00:29:00.618Z,16.27
2019-02-20T00:34:55.632Z,13.93
2019-02-20T00:40:50.603Z,13.94
2019-02-20T00:46:45.614Z,15
2019-02-20T00:52:49.310Z,13.7
2019-02-20T00:58:35.629Z,13.23
2019-02-20T01:04:30.622Z,13
2019-02-20T01:10:25.642Z,13.83
2019-02-20T01:16:20.669Z,14.85
2019-02-20T01:22:15.630Z,14.5
2019-02-20T01:28:10.662Z,13.79
2019-02-20T01:34:05.655Z,14.61
2019-02-20T01:40:00.662Z,13.77
2019-02-20T01:45:55.649Z,14.44
2019-02-20T01:51:50.637Z,14.23
2019-02-20T01:57:45.646Z,14.43
2019-02-20T02:03:40.660Z,13.69
2019-02-20T02:09:35.720Z,12.35
2019-02-20T02:15:30.693Z,9.23
2019-02-20T02:21:25.652Z,10.41
2019-02-20T02:27:20.682Z,12.68
2019-02-20T02:33:15.712Z,13.01
2019-02-20T02:39:10.699Z,12.3
2019-02-20T02:45:05.678Z,11.72
2019-02-20T02:51:00.667Z,12.3
2019-02-20T02:56:55.707Z,14.02
2019-02-20T03:02:50.679Z,15.02
2019-02-20T03:08:45.699Z,14.54
2019-02-20T03:14:40.687Z,14.13
2019-02-20T03:20:35.708Z,14.57
2019-02-20T03:26:30.719Z,14.23
2019-02-20T03:32:25.716Z,13.89
2019-02-20T03:38:29.874Z,12.7
2019-02-20T03:44:15.749Z,12.49
2019-02-20T03:50:10.710Z,11.89
2019-02-20T03:56:05.712Z,10.15
2019-02-20T04:02:00.743Z,9.52
2019-02-20T04:07:55.724Z,10.38
2019-02-20T04:13:50.724Z,9.84
2019-02-20T04:19:45.730Z,10.85
2019-02-20T04:25:40.771Z,11.28
2019-02-20T04:31:35.742Z,10.59
2019-02-20T04:37:30.737Z,9.26
2019-02-20T04:43:25.747Z,8.4
2019-02-20T04:49:20.744Z,7.9
2019-02-20T04:55:15.729Z,10.44
2019-02-20T05:01:10.739Z,12.36
2019-02-20T05:07:05.767Z,12.34
2019-02-20T05:13:00.766Z,12.17
2019-02-20T05:18:55.865Z,13.22
2019-02-20T05:24:50.753Z,18.05
2019-02-20T05:30:45.765Z,17.21
2019-02-20T05:36:40.800Z,28.8
2019-02-20T05:42:35.782Z,20.2
2019-02-20T05:48:30.787Z,18.27
2019-02-20T05:54:34.010Z,17
2019-02-20T06:00:20.806Z,17.8
2019-02-20T06:06:15.774Z,10.59
2019-02-20T06:12:10.790Z,9.07
2019-02-20T06:18:05.810Z,9.52
2019-02-20T06:24:00.804Z,10.62
2019-02-20T06:29:55.791Z,10.25
2019-02-20T06:35:50.793Z,10.18
2019-02-20T06:41:45.808Z,10.79
2019-02-20T06:47:40.801Z,17.86
2019-02-20T06:53:35.831Z,15.6
2019-02-20T06:59:30.808Z,15.99
2019-02-20T07:05:25.800Z,14.84
2019-02-20T07:11:20.802Z,13.62
2019-02-20T07:17:15.808Z,13.18
2019-02-20T07:23:10.801Z,13.19
2019-02-20T07:29:05.881Z,13.82
2019-02-20T07:35:00.824Z,13.71
2019-02-20T07:40:55.864Z,13.42
2019-02-20T07:46:50.830Z,15.89
2019-02-20T07:52:45.840Z,15.12
2019-02-20T07:58:40.844Z,20.66
2019-02-20T08:04:35.863Z,19.9
2019-02-20T08:10:30.841Z,20.98
2019-02-20T08:16:25.883Z,19.09
2019-02-20T08:22:20.832Z,22.03
2019-02-20T08:28:15.862Z,17.48
2019-02-20T08:34:10.850Z,25.24
2019-02-20T08:40:05.874Z,40.13
2019-02-20T08:46:00.869Z,32.42
2019-02-20T08:51:55.894Z,29.04
2019-02-20T08:57:50.851Z,25.54
2019-02-20T09:03:45.908Z,20.75
2019-02-20T09:09:40.894Z,20.1
2019-02-20T09:15:35.913Z,20.86
2019-02-20T09:21:30.881Z,22.41
2019-02-20T09:27:25.876Z,20.47
2019-02-20T09:33:20.872Z,20.57
2019-02-20T09:39:15.876Z,20.55
2019-02-20T09:45:10.887Z,22.21
2019-02-20T09:51:05.926Z,25.32
2019-02-20T09:57:00.959Z,30.24
2019-02-20T10:02:55.942Z,25.67
2019-02-20T10:08:50.884Z,24.36
2019-02-20T10:14:45.894Z,28.37
2019-02-20T10:20:40.915Z,23.87
2019-02-20T10:26:35.902Z,22.72
2019-02-20T10:32:30.922Z,15.81
2019-02-20T10:38:26.005Z,12.63
2019-02-20T10:44:20.913Z,15.12
2019-02-20T10:50:15.953Z,14.18
2019-02-20T10:56:10.927Z,16.09
2019-02-20T11:02:05.977Z,12.73
2019-02-20T11:08:00.940Z,15.38
2019-02-20T11:13:55.927Z,14.9
2019-02-20T11:19:50.958Z,20.68
2019-02-20T11:25:45.978Z,18.73
2019-02-20T11:31:40.949Z,13.54
2019-02-20T11:37:35.941Z,15.07
2019-02-20T11:43:30.939Z,13
2019-02-20T11:49:25.954Z,14.66
2019-02-20T11:55:20.963Z,11.73
2019-02-20T12:01:15.982Z,10.12
2019-02-20T12:07:10.998Z,9.9
2019-02-20T12:13:06.028Z,8.37
2019-02-20T12:19:00.968Z,7.46
2019-02-20T12:24:55.970Z,8.47
2019-02-20T12:30:50.987Z,9.7
2019-02-20T12:36:46.039Z,7.78
2019-02-20T12:42:41.958Z,10.3
2019-02-20T12:48:35.986Z,9.56
2019-02-20T12:54:30.994Z,9.33
2019-02-20T13:00:26.023Z,9.72
2019-02-20T13:06:21.069Z,8.77
2019-02-20T13:12:16.013Z,9.78
2019-02-20T13:18:11.035Z,9.46
2019-02-20T13:24:06.004Z,9.37
2019-02-20T13:30:01.010Z,10.59
2019-02-20T13:35:56.046Z,9.68
2019-02-20T13:41:51.019Z,9.8
2019-02-20T13:47:46.020Z,8.87
2019-02-20T13:53:46.341Z,9.43
2019-02-20T13:59:36.028Z,8.21
2019-02-20T14:05:31.016Z,9.2
2019-02-20T14:11:26.096Z,8.2
2019-02-20T14:17:26.546Z,29.78
2019-02-20T14:23:16.035Z,8.7
2019-02-20T14:29:11.047Z,6.81
2019-02-20T14:35:06.064Z,25.23
2019-02-20T14:41:01.036Z,8.19
2019-02-20T14:46:56.033Z,7.61
2019-02-20T14:52:51.082Z,6.22
2019-02-20T14:58:46.059Z,6.51
2019-02-20T15:04:41.063Z,6.6
2019-02-20T15:10:36.076Z,6.12
2019-02-20T15:16:31.063Z,6.1
2019-02-20T15:22:26.083Z,5.47
2019-02-20T15:28:21.112Z,5.79
2019-02-20T15:34:16.078Z,5.83
2019-02-20T15:40:11.088Z,6.75
2019-02-20T15:46:06.138Z,6.26
2019-02-20T15:52:01.079Z,5.83
2019-02-20T15:57:56.123Z,5.97
2019-02-20T16:03:51.112Z,6.24
2019-02-20T16:09:46.122Z,6.16
2019-02-20T16:15:41.121Z,6.48
2019-02-20T16:21:36.111Z,6.51
2019-02-20T16:27:31.102Z,8.88
2019-02-20T16:33:26.142Z,10.53
2019-02-20T16:39:21.129Z,8.05
2019-02-20T16:45:16.123Z,13.43
2019-02-20T16:51:11.149Z,10.8
2019-02-20T16:57:06.110Z,7.12
2019-02-20T17:03:01.155Z,6.41
2019-02-20T17:08:56.165Z,8.97
2019-02-20T17:14:51.133Z,10.43
2019-02-20T17:20:46.148Z,12.06
2019-02-20T17:26:41.164Z,12.75
2019-02-20T17:32:36.151Z,18.57
2019-02-20T17:38:31.140Z,15.13
2019-02-20T17:44:26.177Z,15.38
2019-02-20T17:50:21.137Z,16.51
2019-02-20T17:56:16.152Z,18.56
2019-02-20T18:02:11.208Z,22.05
2019-02-20T18:08:06.191Z,17.92
2019-02-20T18:14:01.184Z,21.85
2019-02-20T18:19:56.182Z,20.4
2019-02-20T18:25:51.194Z,17.89
2019-02-20T18:31:46.230Z,17.79
2019-02-20T18:37:41.251Z,54.58
2019-02-20T18:43:36.173Z,25.84
2019-02-20T18:49:31.195Z,21.89
2019-02-20T18:55:26.187Z,18.8
2019-02-20T19:01:21.260Z,17.61
2019-02-20T19:07:16.203Z,18.81
2019-02-20T19:13:11.209Z,16.05
2019-02-20T19:19:06.238Z,16.64
2019-02-20T19:25:01.221Z,19.3
2019-02-20T19:30:56.230Z,13.32
2019-02-20T19:36:51.209Z,20.37
2019-02-20T19:42:46.257Z,16.07
2019-02-20T19:48:41.234Z,20.13
2019-02-20T19:54:36.273Z,16.7
2019-02-20T20:00:31.220Z,14.38
2019-02-20T20:06:26.240Z,14.2
2019-02-20T20:12:21.246Z,13.93
2019-02-20T20:18:18.811Z,13.11
2019-02-20T20:24:11.220Z,10.92
2019-02-20T20:30:06.266Z,10.86
2019-02-20T20:36:01.291Z,11.03
2019-02-20T20:41:56.258Z,9.35
2019-02-20T20:47:51.275Z,9.47
2019-02-20T20:53:46.266Z,12.72
2019-02-20T20:59:41.250Z,15.73
2019-02-20T21:05:36.263Z,11.08
2019-02-20T21:11:31.312Z,10.81
2019-02-20T21:17:26.259Z,14.17
2019-02-20T21:23:21.311Z,15.93
2019-02-20T21:29:16.268Z,16.73
2019-02-20T21:35:11.262Z,17.97
2019-02-20T21:41:06.319Z,18.43
2019-02-20T21:47:01.346Z,18.57
2019-02-20T21:52:56.272Z,21.63
2019-02-20T21:58:53.778Z,21.4
2019-02-20T22:04:46.317Z,17.54
2019-02-20T22:10:41.283Z,19.26
2019-02-20T22:16:36.298Z,20.57
2019-02-20T22:22:31.294Z,16.12
2019-02-20T22:28:26.295Z,14.14
2019-02-20T22:34:21.298Z,11.43
2019-02-20T22:40:16.334Z,11
2019-02-20T22:46:11.332Z,10.87
2019-02-20T22:52:06.350Z,21.53
2019-02-20T22:58:01.300Z,12.78
2019-02-20T23:03:56.327Z,9.96
2019-02-20T23:09:52.711Z,10.35
2019-02-20T23:15:46.402Z,13.03
2019-02-20T23:21:41.357Z,17.39
2019-02-20T23:27:36.371Z,14.2
2019-02-20T23:33:31.335Z,14.14
2019-02-20T23:39:26.329Z,12.97
2019-02-20T23:45:21.348Z,13.24
2019-02-20T23:51:16.359Z,13.88
2019-02-20T23:57:11.376Z,14.67
